Time;durP1;ratioP1;P1;durP2;ratioP2;P2;SDS_P1;SDS_P2;PMS_P1;PMS_P2;Temp;Humidity;BMP_temperature;BMP_pressure;BME280_temperature;BME280_humidity;BME280_pressure;Samples;Min_cycle;Max_cycle;Signal;HPM_P1;HPM_P2
2020/12/17 00:01:20;;;;;;;124.82;58.80;;;;;;;5.98;75.11;101079.61;2191065;80;28858;-61
2020/12/17 00:04:22;;;;;;;136.03;62.73;;;;;;;6.01;75.41;101078.27;2223938;80;27698;-61
2020/12/17 00:07:25;;;;;;;122.82;57.30;;;;;;;5.98;75.22;101084.94;2185898;80;29321;-63
2020/12/17 00:10:27;;;;;;;124.95;58.45;;;;;;;5.92;75.37;101081.94;2184987;81;31594;-62
2020/12/17 00:13:48;;;;;;;154.03;67.00;;;;;;;5.90;75.48;101081.08;2187144;80;32966;-61
2020/12/17 00:17:08;;;;;;;152.07;66.62;;;;;;;5.92;75.50;101083.70;2185140;81;27662;-63
2020/12/17 00:20:12;;;;;;;126.30;59.30;;;;;;;5.94;75.48;101080.56;2185137;81;27690;-63
2020/12/17 00:23:15;;;;;;;127.00;57.90;;;;;;;5.92;75.43;101082.38;2214939;80;29758;-63
2020/12/17 00:26:17;;;;;;;129.40;57.17;;;;;;;5.91;75.49;101082.84;2223914;80;31144;-61
2020/12/17 00:29:20;;;;;;;119.42;55.05;;;;;;;5.88;75.54;101081.55;2223851;80;33098;-61
2020/12/17 00:32:23;;;;;;;117.47;55.73;;;;;;;5.88;75.54;101077.56;2074623;84;29896;-61
2020/12/17 00:35:26;;;;;;;112.75;50.43;;;;;;;5.92;75.61;101075.28;2070445;84;27762;-61
2020/12/17 00:38:29;;;;;;;112.60;53.70;;;;;;;5.97;75.73;101077.86;2064957;86;28830;-61
2020/12/17 00:41:31;;;;;;;111.50;56.85;;;;;;;5.96;75.57;101077.90;2069540;84;32583;-61
2020/12/17 00:44:33;;;;;;;119.72;56.95;;;;;;;6.00;75.62;101072.95;2055970;86;33122;-61
2020/12/17 00:47:40;;;;;;;106.05;51.50;;;;;;;6.02;75.65;101071.15;2055886;86;28864;-61
2020/12/17 00:50:42;;;;;;;110.60;54.08;;;;;;;6.02;75.57;101064.50;2133914;81;28118;-64
2020/12/17 00:54:06;;;;;;;115.55;53.98;;;;;;;5.98;75.56;101063.66;2184552;80;28803;-61
2020/12/17 00:57:09;;;;;;;116.10;54.10;;;;;;;6.02;75.68;101065.83;2151819;82;32339;-60
2020/12/17 01:00:11;;;;;;;115.85;51.00;;;;;;;6.01;75.70;101067.63;2151759;82;33129;-61
2020/12/17 01:03:13;;;;;;;106.78;49.03;;;;;;;5.96;75.69;101065.46;2150830;82;29345;-61
2020/12/17 01:06:16;;;;;;;104.90;49.13;;;;;;;5.91;75.70;101064.66;2151457;82;27551;-60
2020/12/17 01:09:18;;;;;;;107.43;51.70;;;;;;;5.86;75.79;101058.56;2151141;82;28810;-61
2020/12/17 01:12:20;;;;;;;111.85;53.30;;;;;;;5.84;75.91;101060.37;2150606;82;31078;-61
2020/12/17 01:15:24;;;;;;;109.00;50.43;;;;;;;5.83;75.93;101060.80;2150995;81;33975;-62
2020/12/17 01:18:26;;;;;;;119.08;55.12;;;;;;;5.86;76.09;101056.77;2120604;82;29729;-60
2020/12/17 01:21:28;;;;;;;107.07;48.73;;;;;;;5.87;76.06;101059.86;2146479;82;27774;-61
2020/12/17 01:24:32;;;;;;;117.05;52.60;;;;;;;5.87;76.10;101057.66;2144038;82;28831;-60
2020/12/17 01:27:34;;;;;;;120.08;54.10;;;;;;;5.85;76.03;101059.47;2151270;82;31200;-62
2020/12/17 01:30:36;;;;;;;111.20;49.63;;;;;;;5.83;76.12;101061.27;2151609;82;33560;-61
2020/12/17 01:33:40;;;;;;;120.65;50.80;;;;;;;5.83;76.18;101052.83;2142691;82;30214;-66
2020/12/17 01:36:42;;;;;;;118.20;53.65;;;;;;;5.84;76.15;101051.92;2140190;83;27663;-65
2020/12/17 01:39:45;;;;;;;117.30;55.28;;;;;;;5.86;76.13;101051.92;2133372;82;28829;-60
2020/12/17 01:42:47;;;;;;;123.05;54.63;;;;;;;5.84;76.10;101040.43;2116545;82;32609;-60
2020/12/17 01:45:50;;;;;;;124.10;52.98;;;;;;;5.78;76.13;101043.61;2116134;82;33567;-60
2020/12/17 01:48:52;;;;;;;121.02;52.08;;;;;;;5.75;76.18;101048.98;2115331;84;29180;-60
2020/12/17 01:51:55;;;;;;;123.58;55.40;;;;;;;5.71;76.22;101051.72;2121269;82;27641;-60
2020/12/17 01:54:58;;;;;;;124.35;53.25;;;;;;;5.72;76.37;101041.05;2107989;84;29243;-64
2020/12/17 01:58:04;;;;;;;118.65;51.40;;;;;;;5.75;76.37;101043.66;2084276;85;31149;-61
2020/12/17 02:01:06;;;;;;;118.00;49.58;;;;;;;5.72;76.30;101038.39;2088523;83;33061;-59
2020/12/17 02:04:10;;;;;;;120.10;54.70;;;;;;;5.73;76.54;101044.60;2120057;83;29615;-62
2020/12/17 02:07:13;;;;;;;119.65;54.88;;;;;;;5.72;76.39;101041.05;2121563;83;27629;-62
2020/12/17 02:10:17;;;;;;;122.67;55.30;;;;;;;5.77;76.38;101044.98;2121593;83;28774;-65
2020/12/17 02:13:32;;;;;;;120.30;56.58;;;;;;;5.83;76.49;101040.86;2121499;83;31141;-60
2020/12/17 02:16:35;;;;;;;116.77;55.73;;;;;;;5.90;76.38;101038.97;2110640;83;33123;-61
2020/12/17 02:19:37;;;;;;;114.30;55.08;;;;;;;5.90;76.28;101045.61;2102576;84;29606;-61
2020/12/17 02:22:40;;;;;;;117.25;56.05;;;;;;;5.93;76.31;101048.23;2122886;83;27648;-61
2020/12/17 02:25:42;;;;;;;123.82;58.02;;;;;;;5.90;76.19;101051.83;2121657;81;29321;-65
2020/12/17 02:28:44;;;;;;;117.72;55.45;;;;;;;5.88;76.18;101053.63;2114546;83;31007;-65
2020/12/17 02:31:47;;;;;;;118.28;52.78;;;;;;;5.88;76.24;101043.44;2121685;83;33113;-61
2020/12/17 02:34:50;;;;;;;115.52;51.95;;;;;;;5.84;76.17;101042.62;2121626;83;29237;-66
2020/12/17 02:37:52;;;;;;;104.58;49.67;;;;;;;5.79;76.13;101039.19;2121361;83;27739;-62
2020/12/17 02:40:55;;;;;;;102.15;51.92;;;;;;;5.74;76.16;101039.25;2116890;83;28883;-65
2020/12/17 02:43:58;;;;;;;102.40;51.05;;;;;;;5.75;76.29;101035.69;2114581;83;32043;-61
2020/12/17 02:47:00;;;;;;;110.25;52.98;;;;;;;5.76;76.31;101041.43;2102428;84;35441;-61
2020/12/17 02:50:05;;;;;;;85.75;45.28;;;;;;;5.73;76.34;101032.64;2113143;83;29165;-62
2020/12/17 02:53:09;;;;;;;78.42;40.75;;;;;;;5.71;76.34;101032.64;2121543;83;27624;-62
2020/12/17 02:56:15;;;;;;;104.43;50.85;;;;;;;5.67;76.26;101042.94;2135772;82;28905;-61
2020/12/17 02:59:17;;;;;;;106.27;51.28;;;;;;;5.62;76.37;101039.03;2150671;82;31162;-61
2020/12/17 03:02:20;;;;;;;96.75;50.20;;;;;;;5.63;76.44;101050.53;2151323;82;33123;-61
2020/12/17 03:05:22;;;;;;;104.20;50.15;;;;;;;5.56;76.34;101048.43;2151978;82;29171;-61
2020/12/17 03:08:26;;;;;;;114.77;60.75;;;;;;;5.55;76.39;101057.30;2132345;82;27825;-61
2020/12/17 03:11:28;;;;;;;116.33;59.50;;;;;;;5.53;76.46;101048.94;2151962;82;28819;-61
2020/12/17 03:14:30;;;;;;;110.78;57.93;;;;;;;5.54;76.49;101046.24;2151948;82;31148;-61
2020/12/17 03:17:33;;;;;;;108.57;56.48;;;;;;;5.58;76.54;101048.39;2151928;82;33146;-60
2020/12/17 03:20:36;;;;;;;95.40;50.88;;;;;;;5.56;76.46;101047.09;2131364;81;29236;-61
2020/12/17 03:23:39;;;;;;;100.62;53.73;;;;;;;5.60;76.49;101052.80;2177728;81;27659;-61
2020/12/17 03:26:41;;;;;;;95.30;50.43;;;;;;;5.61;76.44;101056.31;2177778;81;28803;-66
2020/12/17 03:29:45;;;;;;;96.60;48.48;;;;;;;5.57;76.29;101053.27;2166255;81;31138;-61
2020/12/17 03:32:47;;;;;;;96.28;49.05;;;;;;;5.55;76.30;101051.09;2142685;82;33554;-61
2020/12/17 03:35:49;;;;;;;108.50;57.53;;;;;;;5.52;76.29;101047.19;2140177;83;29176;-61
2020/12/17 03:38:51;;;;;;;86.40;44.90;;;;;;;5.52;76.33;101044.53;2140131;82;27973;-60
2020/12/17 03:41:54;;;;;;;86.72;47.15;;;;;;;5.53;76.26;101040.97;2139507;83;29009;-61
2020/12/17 03:44:56;;;;;;;98.25;53.33;;;;;;;5.47;76.27;101045.47;2147299;82;31581;-61
2020/12/17 03:47:58;;;;;;;96.65;53.33;;;;;;;5.44;76.30;101040.20;2150717;82;33828;-61
2020/12/17 03:51:01;;;;;;;92.90;51.45;;;;;;;5.45;76.40;101043.75;2144377;82;30103;-61
2020/12/17 03:54:04;;;;;;;89.77;48.83;;;;;;;5.42;76.32;101035.83;2101081;82;27674;-61
2020/12/17 03:57:07;;;;;;;79.12;43.60;;;;;;;5.44;76.41;101034.89;2121452;83;28828;-61
2020/12/17 04:00:09;;;;;;;93.33;44.65;;;;;;;5.42;76.35;101030.51;2135191;82;33513;-61
2020/12/17 04:03:11;;;;;;;85.95;40.92;;;;;;;5.36;76.31;101016.87;2158685;82;33106;-61
2020/12/17 04:06:14;;;;;;;76.33;41.45;;;;;;;5.35;76.34;101010.24;2161496;82;29171;-61
2020/12/17 04:09:19;;;;;;;73.12;40.17;;;;;;;5.36;76.39;101003.59;2155909;82;27629;-61
2020/12/17 04:12:21;;;;;;;;;;;;;;;5.34;76.32;100998.75;2164079;82;29020;-60
2020/12/17 04:15:23;;;;;;;86.65;44.83;;;;;;;5.32;76.41;100992.58;2155588;82;30932;-61
2020/12/17 04:18:26;;;;;;;81.42;44.30;;;;;;;5.27;76.42;100991.77;2154747;82;34451;-60
2020/12/17 04:21:28;;;;;;;85.17;43.63;;;;;;;5.20;76.39;100991.00;2155497;82;29166;-61
2020/12/17 04:24:31;;;;;;;87.85;43.63;;;;;;;5.16;76.53;100995.92;2155670;82;27690;-60
2020/12/17 04:27:33;;;;;;;89.13;45.52;;;;;;;5.13;76.56;101002.17;2155434;82;28844;-62
2020/12/17 04:30:36;;;;;;;82.92;42.62;;;;;;;5.14;76.65;101000.38;2153217;82;31183;-61
2020/12/17 04:33:38;;;;;;;83.58;44.83;;;;;;;5.15;76.63;101007.02;2155903;82;32387;-61
2020/12/17 04:36:41;;;;;;;75.45;41.55;;;;;;;5.13;76.59;101003.50;2155135;82;29253;-61
2020/12/17 04:39:43;;;;;;;89.45;47.78;;;;;;;5.15;76.56;101004.36;2155520;82;27651;-61
2020/12/17 04:42:48;;;;;;;89.50;47.35;;;;;;;5.18;76.62;101006.08;2155444;82;28812;-61
2020/12/17 04:45:52;;;;;;;90.90;48.68;;;;;;;5.21;76.64;100999.86;2156123;82;31327;-61
2020/12/17 04:48:55;;;;;;;67.32;37.55;;;;;;;5.26;76.63;101004.62;2155684;82;33113;-60
2020/12/17 04:51:59;;;;;;;86.53;45.67;;;;;;;5.29;76.57;101001.49;2134940;82;29170;-61
2020/12/17 04:55:03;;;;;;;82.50;44.55;;;;;;;5.30;76.43;101001.89;2155664;82;27728;-62
2020/12/17 04:58:08;;;;;;;86.95;44.35;;;;;;;5.28;76.40;101002.39;2139822;82;28903;-61
2020/12/17 05:01:17;;;;;;;91.97;44.40;;;;;;;5.27;76.35;100996.66;2131373;82;31160;-61
2020/12/17 05:04:20;;;;;;;98.42;46.70;;;;;;;5.31;76.42;100997.47;2146578;82;33748;-61
2020/12/17 05:07:24;;;;;;;84.50;43.00;;;;;;;5.34;76.32;100996.09;2146741;82;29178;-61
2020/12/17 05:10:26;;;;;;;81.40;42.88;;;;;;;5.33;76.19;100993.02;2130705;82;27776;-61
2020/12/17 05:13:28;;;;;;;82.55;41.63;;;;;;;5.28;76.17;100995.75;2142570;82;28841;-60
2020/12/17 05:16:32;;;;;;;90.38;46.00;;;;;;;5.29;76.29;100997.94;2083294;85;32103;-61
2020/12/17 05:19:35;;;;;;;73.05;42.60;;;;;;;5.26;76.20;101003.30;2118032;82;33163;-61
2020/12/17 05:22:43;;;;;;;85.20;44.88;;;;;;;5.26;76.20;101007.28;2146562;82;29171;-61
2020/12/17 05:25:45;;;;;;;88.40;47.50;;;;;;;5.25;76.11;101013.50;2145865;82;27773;-61
2020/12/17 05:28:47;;;;;;;83.05;45.12;;;;;;;5.23;76.23;101010.88;2098264;82;29451;-61
2020/12/17 05:31:51;;;;;;;85.95;44.20;;;;;;;5.24;76.17;101009.98;2091667;82;31170;-60
2020/12/17 05:34:54;;;;;;;76.57;40.03;;;;;;;5.21;76.12;101008.70;2138658;83;33964;-61
2020/12/17 05:38:03;;;;;;;75.25;39.95;;;;;;;5.20;76.06;101014.91;2096633;84;30130;-62
2020/12/17 05:41:06;;;;;;;83.97;42.48;;;;;;;5.18;75.98;101014.05;2107942;84;27740;-61
2020/12/17 05:44:19;;;;;;;82.57;43.83;;;;;;;5.17;75.99;101018.50;2121766;82;28843;-60
2020/12/17 05:47:41;;;;;;;86.30;43.63;;;;;;;5.17;76.08;101014.52;2146534;82;31600;-61
2020/12/17 05:50:56;;;;;;;84.47;44.53;;;;;;;5.20;76.02;101019.36;2143019;83;33976;-60
2020/12/17 05:53:59;;;;;;;81.85;41.15;;;;;;;5.18;75.90;101028.66;2126677;83;29657;-59
2020/12/17 05:57:07;;;;;;;82.67;42.70;;;;;;;5.19;75.83;101021.12;2149158;81;27633;-59
2020/12/17 06:00:10;;;;;;;80.35;43.83;;;;;;;5.18;75.77;101020.69;2102652;83;28832;-62
2020/12/17 06:03:13;;;;;;;80.35;40.17;;;;;;;5.17;75.87;101022.48;2142216;82;31138;-60
2020/12/17 06:06:15;;;;;;;70.30;37.00;;;;;;;5.15;75.56;101024.28;2146628;82;33570;-60
2020/12/17 06:09:24;;;;;;;69.22;37.63;;;;;;;5.14;75.52;101030.92;2144988;82;29612;-60
2020/12/17 06:12:50;;;;;;;70.87;39.00;;;;;;;5.11;75.42;101028.34;2130661;82;27712;-60
2020/12/17 06:16:06;;;;;;;75.70;39.30;;;;;;;5.12;75.38;101028.77;2297121;77;27702;-59
2020/12/17 06:19:13;;;;;;;72.60;38.42;;;;;;;5.02;75.41;101036.00;2217515;80;27741;-59
2020/12/17 06:22:15;;;;;;;66.30;36.85;;;;;;;4.99;75.39;101032.05;2208650;80;28829;-59
2020/12/17 06:25:19;;;;;;;69.50;38.67;;;;;;;4.96;75.33;101038.30;2178078;81;31151;-60
2020/12/17 06:28:36;;;;;;;62.15;34.13;;;;;;;4.94;75.41;101041.42;2217489;80;33180;-60
2020/12/17 06:31:43;;;;;;;59.10;32.30;;;;;;;4.96;75.30;101036.97;2212017;80;28809;-61
2020/12/17 06:34:49;;;;;;;66.33;36.83;;;;;;;4.96;75.26;101042.28;2181815;80;27968;-60
2020/12/17 06:37:51;;;;;;;;;;;;;;;4.96;75.33;101040.95;2181505;81;28182;-62
2020/12/17 06:40:55;;;;;;;63.05;34.38;;;;;;;4.98;75.28;101043.57;2139692;83;32062;-60
2020/12/17 06:43:58;;;;;;;67.25;36.17;;;;;;;4.97;75.20;101044.00;2178717;78;33091;-61
2020/12/17 06:47:03;;;;;;;61.83;34.25;;;;;;;4.98;75.23;101042.24;2139170;83;28919;-61
2020/12/17 06:50:23;;;;;;;;;;;;;;;4.99;75.20;101046.66;2181594;81;27659;-60
2020/12/17 06:53:40;;;;;;;67.08;33.10;;;;;;;4.97;75.12;101044.00;2178240;80;29474;-60
2020/12/17 06:57:09;;;;;;;58.58;31.68;;;;;;;4.96;75.03;101044.94;2139134;83;31156;-60
2020/12/17 07:00:22;;;;;;;62.40;34.67;;;;;;;4.93;74.92;101044.08;2178702;81;33047;-60
2020/12/17 07:03:58;;;;;;;63.87;32.73;;;;;;;4.91;75.07;101049.42;2178704;81;28892;-60
2020/12/17 07:07:37;;;;;;;60.25;32.60;;;;;;;4.92;75.02;101056.92;2178992;81;27863;-59
2020/12/17 07:11:05;;;;;;;59.83;32.93;;;;;;;4.91;75.04;101049.86;2050139;85;28837;-60
2020/12/17 07:14:41;;;;;;;56.90;31.62;;;;;;;4.90;74.96;101056.06;2055207;85;31848;-60
2020/12/17 07:18:28;;;;;;;54.50;28.20;;;;;;;4.90;74.91;101053.41;2068615;84;34467;-59
2020/12/17 07:21:53;;;;;;;57.90;30.50;;;;;;;5.00;74.72;101044.43;2265534;77;27747;-59
2020/12/17 07:24:59;;;;;;;66.85;32.55;;;;;;;4.93;74.56;101048.06;2221613;80;28066;-60
2020/12/17 07:28:03;;;;;;;55.67;30.20;;;;;;;4.93;74.53;101052.04;2226200;80;30196;-61
2020/12/17 07:31:07;;;;;;;63.85;33.67;;;;;;;4.94;74.62;101054.70;2229145;78;32142;-62
2020/12/17 07:34:19;;;;;;;56.63;31.13;;;;;;;5.01;74.57;101056.81;2264169;78;33143;-61
2020/12/17 07:37:47;;;;;;;59.05;34.70;;;;;;;5.01;74.57;101056.81;2180275;81;29573;-61
2020/12/17 07:44:05;;;;;;;54.57;29.47;;;;;;;5.17;74.26;101053.46;2248329;78;27746;-61
2020/12/17 07:47:21;;;;;;;57.70;29.63;;;;;;;5.14;74.16;101048.19;2228607;79;27649;-60
2020/12/17 07:50:41;;;;;;;57.78;30.85;;;;;;;5.12;73.78;101053.53;2228745;79;28822;-61
2020/12/17 07:54:05;;;;;;;53.87;30.43;;;;;;;5.09;73.77;101050.92;2227784;79;31123;-62
2020/12/17 07:57:07;;;;;;;54.03;29.67;;;;;;;5.11;73.85;101055.77;2212634;80;33918;-60
2020/12/17 08:00:13;;;;;;;60.85;32.63;;;;;;;5.11;73.27;101049.12;2212498;80;28972;-61
2020/12/17 08:03:18;;;;;;;57.70;32.00;;;;;;;5.02;73.23;101053.26;2232479;79;28123;-61
2020/12/17 08:06:23;;;;;;;65.22;34.35;;;;;;;4.97;73.54;101048.45;2238898;79;29841;-62
2020/12/17 08:09:26;;;;;;;60.43;32.10;;;;;;;4.93;73.46;101048.06;2216403;79;31132;-60
2020/12/17 08:12:28;;;;;;;61.48;34.45;;;;;;;4.90;73.47;101045.01;2212425;80;33169;-61
2020/12/17 08:15:31;;;;;;;62.48;33.73;;;;;;;4.91;73.41;101044.55;2190516;79;29747;-60
2020/12/17 08:18:36;;;;;;;65.42;36.30;;;;;;;4.89;73.29;101051.22;2180424;81;27719;-61
2020/12/17 08:21:46;;;;;;;65.20;34.53;;;;;;;4.83;73.41;101044.22;2180320;81;28826;-61
2020/12/17 08:24:48;;;;;;;71.40;38.02;;;;;;;4.83;73.43;101042.89;2180343;81;31891;-62
2020/12/17 08:27:52;;;;;;;60.15;33.50;;;;;;;4.75;73.37;101040.78;2180354;81;33248;-62
2020/12/17 08:31:10;;;;;;;71.30;39.25;;;;;;;4.69;73.47;101047.05;2180507;81;29794;-62
2020/12/17 08:34:13;;;;;;;71.57;38.50;;;;;;;4.65;73.70;101053.28;2202971;80;27693;-62
2020/12/17 08:37:21;;;;;;;51.25;27.95;;;;;;;4.66;73.90;101047.08;2179527;81;28854;-62
2020/12/17 08:40:26;;;;;;;60.92;31.97;;;;;;;4.70;73.86;101047.48;2179468;81;31185;-61
2020/12/17 08:43:43;;;;;;;73.80;38.42;;;;;;;4.77;74.00;101040.77;2178795;80;33112;-62
2020/12/17 08:46:49;;;;;;;67.92;37.28;;;;;;;4.81;73.68;101043.80;2133205;83;28851;-63
2020/12/17 08:49:51;;;;;;;71.30;39.00;;;;;;;4.81;73.51;101043.80;2137465;81;27671;-61
2020/12/17 08:52:55;;;;;;;71.60;37.78;;;;;;;4.81;73.83;101044.69;2168061;81;29942;-61
2020/12/17 08:56:11;;;;;;;75.30;37.10;;;;;;;4.82;73.60;101041.14;2219912;78;32049;-60
2020/12/17 08:59:15;;;;;;;67.08;35.68;;;;;;;4.79;73.14;101046.48;2259464;78;33150;-61
2020/12/17 09:02:26;;;;;;;49.42;26.20;;;;;;;4.71;73.17;101049.70;2249950;78;30191;-60
2020/12/17 09:05:29;;;;;;;64.50;32.98;;;;;;;4.65;73.35;101049.31;2254443;78;27566;-61
2020/12/17 09:08:33;;;;;;;65.22;32.05;;;;;;;4.66;73.37;101052.39;2254009;79;28819;-62
2020/12/17 09:11:37;;;;;;;63.40;36.05;;;;;;;4.65;73.40;101054.61;2253885;79;32110;-61
2020/12/17 09:14:40;;;;;;;58.10;33.38;;;;;;;4.66;73.46;101055.05;2253807;79;33372;-61
2020/12/17 09:17:44;;;;;;;70.55;36.23;;;;;;;4.69;73.46;101056.34;2253872;79;29723;-61
2020/12/17 09:20:46;;;;;;;65.65;33.80;;;;;;;4.75;73.57;101063.34;2258504;78;27695;-63
2020/12/17 09:23:57;;;;;;;63.40;33.90;;;;;;;4.79;73.46;101057.56;2253171;79;29554;-61
2020/12/17 09:27:24;;;;;;;58.15;30.30;;;;;;;4.83;73.36;101059.25;2253225;78;31121;-62
2020/12/17 09:30:32;;;;;;;59.75;32.55;;;;;;;4.83;73.16;101068.11;2205027;80;33127;-62
2020/12/17 09:33:35;;;;;;;57.73;30.85;;;;;;;4.82;73.04;101060.15;2205134;80;28958;-62
2020/12/17 09:36:59;;;;;;;53.00;28.90;;;;;;;4.82;72.92;101057.50;2205148;80;27635;-62
2020/12/17 09:40:04;;;;;;;50.75;27.50;;;;;;;4.82;73.05;101051.75;2107168;84;29335;-61
2020/12/17 09:43:09;;;;;;;53.78;28.92;;;;;;;4.85;72.98;101054.37;2117441;83;31213;-61
2020/12/17 09:46:11;;;;;;;56.00;30.80;;;;;;;4.86;73.06;101050.82;2072870;83;34142;-63
2020/12/17 09:49:25;;;;;;;57.43;31.10;;;;;;;4.87;72.82;101049.03;2098728;83;30206;-61
2020/12/17 09:52:28;;;;;;;52.43;28.87;;;;;;;4.86;72.94;101053.91;2099634;84;27808;-61
2020/12/17 09:55:33;;;;;;;54.70;30.17;;;;;;;4.89;72.84;101047.23;2099621;84;28783;-62
2020/12/17 09:58:35;;;;;;;45.23;24.32;;;;;;;4.93;72.86;101048.06;2099595;84;32305;-61
2020/12/17 10:01:38;;;;;;;51.42;27.73;;;;;;;4.98;72.74;101042.24;2099516;84;33157;-61
2020/12/17 10:04:42;;;;;;;49.75;27.20;;;;;;;5.02;72.93;101038.66;2087512;84;28865;-62
2020/12/17 10:11:07;;;;;;;39.93;24.03;;;;;;;5.22;72.91;101044.98;2297468;77;27964;-61
2020/12/17 10:14:13;;;;;;;36.83;21.33;;;;;;;5.22;72.59;101046.31;2262804;78;27687;-61
2020/12/17 10:17:16;;;;;;;41.33;24.05;;;;;;;5.24;72.17;101044.95;2262480;78;28905;-62
2020/12/17 10:20:18;;;;;;;42.40;24.02;;;;;;;5.22;72.09;101038.77;2257518;78;31202;-63
2020/12/17 10:23:21;;;;;;;40.73;23.22;;;;;;;5.19;72.12;101034.40;2222472;78;34049;-61
2020/12/17 10:26:23;;;;;;;42.70;24.37;;;;;;;5.21;72.25;101035.72;2226737;79;28536;-62
2020/12/17 10:29:26;;;;;;;41.58;24.40;;;;;;;5.22;72.06;101038.77;2226601;79;27840;-62
2020/12/17 10:32:32;;;;;;;48.15;29.63;;;;;;;5.21;71.85;101037.91;2226523;79;29395;-61
2020/12/17 10:35:34;;;;;;;41.92;23.15;;;;;;;5.22;72.25;101040.10;2226458;79;31178;-61
2020/12/17 10:38:37;;;;;;;37.38;22.67;;;;;;;5.26;71.97;101029.86;2226517;79;33967;-61
2020/12/17 10:41:40;;;;;;;41.13;22.13;;;;;;;5.29;72.09;101026.73;2226535;79;28909;-62
2020/12/17 10:44:43;;;;;;;35.68;22.00;;;;;;;5.34;71.86;101018.68;2229672;78;27667;-62
2020/12/17 10:47:47;;;;;;;44.18;26.87;;;;;;;5.40;71.75;101019.89;2214331;80;28815;-61
2020/12/17 10:50:49;;;;;;;36.45;21.37;;;;;;;5.42;71.84;101022.54;2214410;80;31719;-62
2020/12/17 10:53:53;;;;;;;37.38;22.98;;;;;;;5.42;71.70;101023.41;2214464;80;34406;-64
2020/12/17 10:56:55;;;;;;;42.70;23.95;;;;;;;5.46;71.90;101017.61;2214389;80;29059;-61
2020/12/17 10:59:58;;;;;;;38.15;21.50;;;;;;;5.50;71.66;101011.78;2232682;78;27746;-61
2020/12/17 11:03:01;;;;;;;37.98;21.12;;;;;;;5.51;71.67;101007.75;2260749;78;28739;-61
2020/12/17 11:06:05;;;;;;;35.70;21.70;;;;;;;5.56;71.51;101005.01;2214062;80;31972;-65
2020/12/17 11:09:07;;;;;;;44.80;27.10;;;;;;;5.57;71.53;101003.67;2206105;80;33299;-62
2020/12/17 11:12:11;;;;;;;33.83;19.45;;;;;;;5.59;71.39;101007.62;2198649;80;29070;-60
2020/12/17 11:15:16;;;;;;;37.48;20.00;;;;;;;5.60;71.29;100992.99;2226094;80;27623;-61
2020/12/17 11:18:20;;;;;;;41.15;24.57;;;;;;;5.63;71.13;100990.72;2225874;79;29773;-62
2020/12/17 11:21:23;;;;;;;33.38;18.73;;;;;;;5.65;71.37;100990.25;2218109;80;31194;-61
2020/12/17 11:24:26;;;;;;;34.73;20.15;;;;;;;5.68;71.00;100986.64;2225395;80;34126;-61
2020/12/17 11:27:30;;;;;;;31.12;18.82;;;;;;;5.70;71.24;100980.41;2225345;80;28152;-61
2020/12/17 11:30:35;;;;;;;32.10;18.85;;;;;;;5.71;70.29;100980.81;2225523;80;27663;-61
2020/12/17 11:33:37;;;;;;;40.97;23.20;;;;;;;5.67;70.85;100968.94;2225768;80;28685;-61
2020/12/17 11:36:40;;;;;;;39.23;23.12;;;;;;;5.73;71.26;100979.00;2225424;80;31137;-66
2020/12/17 11:39:43;;;;;;;37.93;21.42;;;;;;;5.80;71.17;100989.06;2225468;80;33129;-62
2020/12/17 11:42:48;;;;;;;37.28;20.40;;;;;;;5.85;70.53;100982.36;2225288;80;29954;-61
2020/12/17 11:45:51;;;;;;;36.27;21.83;;;;;;;5.84;70.72;100985.92;2198577;80;27903;-60
2020/12/17 11:48:53;;;;;;;33.73;21.37;;;;;;;5.85;70.88;100983.69;2186519;81;28820;-62
2020/12/17 11:51:56;;;;;;;33.23;19.50;;;;;;;5.87;70.74;100984.07;2186574;80;32055;-60
2020/12/17 11:55:00;;;;;;;33.53;19.95;;;;;;;5.90;70.68;100980.47;2186474;80;33538;-62
2020/12/17 11:58:02;;;;;;;34.90;20.05;;;;;;;5.87;70.13;100972.57;2186684;81;28871;-61
2020/12/17 12:01:05;;;;;;;33.60;19.32;;;;;;;5.82;70.37;100961.14;2186596;81;27750;-61
2020/12/17 12:04:09;;;;;;;29.00;16.75;;;;;;;5.78;70.29;100953.22;2203224;80;28815;-62
2020/12/17 12:07:12;;;;;;;31.97;18.02;;;;;;;5.74;70.23;100955.97;2225436;80;31124;-60
2020/12/17 12:10:14;;;;;;;31.20;18.67;;;;;;;5.70;70.18;100958.25;2225320;79;33121;-62
2020/12/17 12:13:17;;;;;;;33.33;17.55;;;;;;;5.68;70.54;100960.95;2225482;80;28866;-62
2020/12/17 12:16:22;;;;;;;29.00;17.75;;;;;;;5.69;70.51;100952.52;2225634;80;27547;-61
2020/12/17 12:19:26;;;;;;;32.05;19.45;;;;;;;5.72;70.39;100945.81;2223288;80;28818;-60
2020/12/17 12:22:28;;;;;;;32.25;18.77;;;;;;;5.68;70.37;100942.34;2214295;80;32126;-61
2020/12/17 12:25:31;;;;;;;29.12;17.75;;;;;;;5.68;70.21;100945.44;2225365;80;33232;-61
2020/12/17 12:28:35;;;;;;;30.97;17.07;;;;;;;5.62;70.12;100964.61;2225509;80;28888;-61
2020/12/17 12:31:38;;;;;;;24.47;14.47;;;;;;;5.58;70.38;100954.93;2225006;80;27812;-60
2020/12/17 12:34:40;;;;;;;32.80;18.67;;;;;;;5.58;70.47;100946.06;2225484;80;28826;-61
2020/12/17 12:37:43;;;;;;;33.53;20.02;;;;;;;5.61;70.70;100945.58;2225398;80;31716;-61
2020/12/17 12:40:46;;;;;;;31.27;19.05;;;;;;;5.63;70.66;100949.52;2221877;80;33109;-61
2020/12/17 12:43:48;;;;;;;30.40;17.70;;;;;;;5.66;70.66;100961.43;2222878;80;28725;-61
2020/12/17 12:46:51;;;;;;;37.20;22.62;;;;;;;5.67;70.61;100957.87;2225490;80;27624;-61
2020/12/17 12:50:08;;;;;;;30.65;16.05;;;;;;;5.67;70.67;100958.30;2225477;80;28819;-61
2020/12/17 12:53:12;;;;;;;31.05;18.07;;;;;;;5.70;70.64;100963.57;2225351;80;27762;-61
2020/12/17 12:56:24;;;;;;;36.15;22.90;;;;;;;5.69;70.51;100952.52;2225475;80;34323;-61
2020/12/17 12:59:31;;;;;;;54.48;37.70;;;;;;;5.68;70.61;100952.08;2225258;80;28848;-61
2020/12/17 13:02:36;;;;;;;34.10;18.87;;;;;;;5.71;70.76;100956.02;2222381;80;27594;-62
2020/12/17 13:05:39;;;;;;;29.72;17.65;;;;;;;5.71;70.74;100957.34;2186502;81;29857;-62
2020/12/17 13:08:42;;;;;;;38.73;21.10;;;;;;;5.70;70.57;100960.48;2186477;81;32022;-61
2020/12/17 13:11:46;;;;;;;36.15;19.55;;;;;;;5.69;70.78;100964.03;2231728;79;33029;-61
2020/12/17 13:14:49;;;;;;;26.07;13.67;;;;;;;5.68;70.74;100954.31;2238881;79;29703;-61
2020/12/17 13:17:52;;;;;;;39.35;23.10;;;;;;;5.66;70.53;100965.85;2238658;79;27669;-61
2020/12/17 13:20:55;;;;;;;35.08;18.45;;;;;;;5.63;70.78;100964.14;2254256;78;28652;-61
2020/12/17 13:23:59;;;;;;;35.45;19.07;;;;;;;5.62;70.81;100969.92;2221477;80;32191;-61
2020/12/17 13:27:01;;;;;;;39.85;21.05;;;;;;;5.62;70.87;100964.61;2220890;80;33114;-61
2020/12/17 13:30:04;;;;;;;37.15;20.82;;;;;;;5.60;70.86;100966.41;2221501;80;28879;-62
2020/12/17 13:33:07;;;;;;;36.17;20.60;;;;;;;5.59;70.96;100963.77;2221620;78;27667;-63
2020/12/17 13:36:10;;;;;;;46.65;26.80;;;;;;;5.57;70.98;100965.13;2221082;80;29820;-61
2020/12/17 13:39:14;;;;;;;35.78;20.05;;;;;;;5.56;71.04;100964.70;2227919;78;31116;-61
2020/12/17 13:42:18;;;;;;;36.08;20.92;;;;;;;5.55;71.06;100960.73;2261676;78;33094;-61
2020/12/17 13:45:23;;;;;;;38.40;21.00;;;;;;;5.54;71.06;100956.34;2249073;78;29736;-61
2020/12/17 13:48:25;;;;;;;41.45;22.15;;;;;;;5.53;71.11;100953.27;2238654;79;27646;-65
2020/12/17 13:51:28;;;;;;;35.35;19.95;;;;;;;5.50;71.10;100948.00;2238671;79;28817;-62
2020/12/17 13:54:30;;;;;;;47.50;23.05;;;;;;;5.45;71.24;100953.41;2238548;79;31169;-61
2020/12/17 13:57:33;;;;;;;48.55;23.47;;;;;;;5.41;71.60;100949.04;2238529;79;33171;-61
2020/12/17 14:00:36;;;;;;;46.33;25.00;;;;;;;5.42;71.54;100954.31;2252602;78;28928;-61
2020/12/17 14:03:42;;;;;;;48.00;25.05;;;;;;;5.40;71.50;100958.77;2261801;78;27978;-61
2020/12/17 14:06:45;;;;;;;58.68;32.00;;;;;;;5.38;71.54;100957.92;2261772;78;28924;-62
2020/12/17 14:09:47;;;;;;;64.40;34.25;;;;;;;5.36;71.54;100957.09;2259179;78;31225;-62
2020/12/17 14:12:52;;;;;;;44.38;24.75;;;;;;;5.35;71.53;100964.64;2255334;78;28324;-61
2020/12/17 14:15:54;;;;;;;41.37;23.38;;;;;;;5.37;71.54;100965.93;2244457;79;28863;-61
2020/12/17 14:18:59;;;;;;;43.63;23.35;;;;;;;5.35;71.51;100956.67;2245543;79;27612;-61